Time;durP1;ratioP1;P1;durP2;ratioP2;P2;SDS_P1;SDS_P2;PMS_P1;PMS_P2;Temp;Humidity;BMP_temperature;BMP_pressure;BME280_temperature;BME280_humidity;BME280_pressure;Samples;Min_cycle;Max_cycle;Signal;HPM_P1;HPM_P2
2021/06/16 00:00:58;;;;;;;6.00;1.95;;;;;;;;;;5048484;28;38628;-81
2021/06/16 00:03:24;;;;;;;7.72;2.28;;;;;;;;;;5056370;27;37680;-81
2021/06/16 00:05:51;;;;;;;6.93;1.98;;;;;;;;;;5056029;28;39717;-82
2021/06/16 00:08:17;;;;;;;2.63;1.42;;;;;;;;;;5051958;27;39076;-81
2021/06/16 00:10:43;;;;;;;8.25;2.15;;;;;;;;;;5056595;28;37104;-82
2021/06/16 00:13:10;;;;;;;6.35;1.90;;;;;;;;;;5047855;27;37948;-81
2021/06/16 00:15:39;;;;;;;6.72;1.90;;;;;;;;;;5075732;27;39167;-81
2021/06/16 00:18:06;;;;;;;5.93;1.73;;;;;;;;;;5049413;27;38998;-81
2021/06/16 00:20:33;;;;;;;8.07;2.05;;;;;;;;;;5047164;27;38709;-82
2021/06/16 00:22:59;;;;;;;4.45;1.70;;;;;;;;;;5058741;28;36811;-81
2021/06/16 00:25:26;;;;;;;4.78;1.67;;;;;;;;;;5053600;27;39572;-81
2021/06/16 00:27:53;;;;;;;6.75;1.95;;;;;;;;;;5051750;28;39751;-81
2021/06/16 00:30:19;;;;;;;4.40;1.90;;;;;;;;;;5059741;27;40487;-81
2021/06/16 00:32:46;;;;;;;7.55;1.83;;;;;;;;;;5055882;28;37459;-81
2021/06/16 00:35:13;;;;;;;6.20;2.00;;;;;;;;;;5054522;28;39562;-82
2021/06/16 00:37:40;;;;;;;7.93;2.13;;;;;;;;;;5055662;28;40620;-82
2021/06/16 00:40:08;;;;;;;4.78;2.13;;;;;;;;;;5055611;27;39150;-82
2021/06/16 00:42:34;;;;;;;7.95;2.45;;;;;;;;;;5051895;28;38859;-82
2021/06/16 00:45:01;;;;;;;7.65;2.35;;;;;;;;;;5049055;27;40624;-80
2021/06/16 00:47:27;;;;;;;5.03;2.30;;;;;;;;;;5048915;28;46532;-82
2021/06/16 00:49:53;;;;;;;5.47;2.08;;;;;;;;;;5049953;28;37820;-80
2021/06/16 00:52:20;;;;;;;6.35;1.77;;;;;;;;;;5048633;27;37679;-81
2021/06/16 00:54:46;;;;;;;8.38;2.47;;;;;;;;;;5050294;28;40127;-80
2021/06/16 00:57:13;;;;;;;6.20;2.40;;;;;;;;;;5045434;27;39782;-80
2021/06/16 01:00:07;;;;;;;8.02;2.35;;;;;;;;;;5032560;28;39369;-80
2021/06/16 01:02:35;;;;;;;7.72;2.25;;;;;;;;;;5041970;27;49248;-81
2021/06/16 01:05:02;;;;;;;10.38;2.90;;;;;;;;;;5033460;28;38423;-80
2021/06/16 01:07:33;;;;;;;5.30;2.50;;;;;;;;;;5037714;28;48742;-81
2021/06/16 01:10:03;;;;;;;5.55;1.90;;;;;;;;;;5045532;28;39305;-80
2021/06/16 01:12:33;;;;;;;6.65;2.22;;;;;;;;;;5036014;28;47429;-81
2021/06/16 01:15:13;;;;;;;5.70;2.60;;;;;;;;;;5057199;28;39787;-81
2021/06/16 01:17:45;;;;;;;5.80;2.53;;;;;;;;;;5072612;27;47283;-82
2021/06/16 01:20:24;;;;;;;7.72;2.28;;;;;;;;;;5047423;27;38692;-81
2021/06/16 01:23:00;;;;;;;5.75;2.58;;;;;;;;;;5050002;27;38051;-80
2021/06/16 01:25:29;;;;;;;5.53;2.42;;;;;;;;;;5052295;27;38513;-82
2021/06/16 01:27:57;;;;;;;9.32;2.88;;;;;;;;;;5051575;28;38564;-81
2021/06/16 01:30:25;;;;;;;8.02;3.03;;;;;;;;;;5044952;27;39144;-81
2021/06/16 01:32:52;;;;;;;8.40;2.50;;;;;;;;;;5054217;28;35848;-81
2021/06/16 01:35:18;;;;;;;8.10;3.03;;;;;;;;;;5054992;28;39869;-81
2021/06/16 01:37:45;;;;;;;10.13;3.45;;;;;;;;;;5055309;27;39093;-81
2021/06/16 01:40:13;;;;;;;7.97;2.85;;;;;;;;;;5057197;28;39055;-81
2021/06/16 01:42:40;;;;;;;8.63;2.80;;;;;;;;;;5052155;28;37738;-81
2021/06/16 01:45:07;;;;;;;7.95;2.60;;;;;;;;;;5056894;27;38852;-80
2021/06/16 01:47:34;;;;;;;10.32;2.97;;;;;;;;;;5086961;27;39466;-80
2021/06/16 01:50:01;;;;;;;8.50;3.10;;;;;;;;;;5053294;28;39151;-82
2021/06/16 01:52:29;;;;;;;7.80;2.95;;;;;;;;;;5049181;27;37654;-81
2021/06/16 01:54:56;;;;;;;9.40;2.83;;;;;;;;;;5060679;27;38928;-80
2021/06/16 01:57:24;;;;;;;8.20;2.88;;;;;;;;;;5053636;27;39115;-81
2021/06/16 01:59:52;;;;;;;6.90;2.83;;;;;;;;;;5058184;28;39230;-80
2021/06/16 02:02:19;;;;;;;6.80;3.22;;;;;;;;;;5052728;27;36733;-80
2021/06/16 02:04:45;;;;;;;12.13;3.70;;;;;;;;;;5067120;28;41027;-81
2021/06/16 02:07:32;;;;;;;7.85;3.42;;;;;;;;;;5050621;28;40008;-81
2021/06/16 02:09:59;;;;;;;10.30;3.30;;;;;;;;;;5052283;28;39286;-81
2021/06/16 02:12:27;;;;;;;7.45;2.90;;;;;;;;;;5050407;27;38751;-81
2021/06/16 02:15:14;;;;;;;9.05;4.03;;;;;;;;;;5052358;27;39055;-83
2021/06/16 02:17:42;;;;;;;9.13;3.58;;;;;;;;;;5051485;27;48984;-82
2021/06/16 02:20:09;;;;;;;10.02;3.92;;;;;;;;;;5053653;27;39290;-81
2021/06/16 02:22:35;;;;;;;9.55;3.63;;;;;;;;;;5052434;28;38013;-81
2021/06/16 02:25:04;;;;;;;9.13;3.60;;;;;;;;;;5048957;27;39595;-82
2021/06/16 02:27:30;;;;;;;5.85;3.63;;;;;;;;;;5048108;28;39195;-81
2021/06/16 02:29:57;;;;;;;8.95;3.47;;;;;;;;;;5055064;28;37500;-81
2021/06/16 02:32:23;;;;;;;7.32;3.78;;;;;;;;;;5050670;27;37458;-81
2021/06/16 02:34:49;;;;;;;8.95;4.35;;;;;;;;;;5049470;28;39624;-82
2021/06/16 02:37:18;;;;;;;8.50;3.63;;;;;;;;;;5056294;27;39585;-81
2021/06/16 02:39:53;;;;;;;12.10;4.03;;;;;;;;;;5057606;28;39027;-82
2021/06/16 02:42:20;;;;;;;9.32;3.95;;;;;;;;;;5064936;27;35312;-82
2021/06/16 02:44:48;;;;;;;9.63;3.60;;;;;;;;;;5060964;27;38705;-81
2021/06/16 02:47:15;;;;;;;8.02;3.60;;;;;;;;;;5057426;28;39480;-81
2021/06/16 02:49:43;;;;;;;7.63;3.60;;;;;;;;;;5054248;28;38711;-81
2021/06/16 02:52:11;;;;;;;7.68;3.50;;;;;;;;;;5054040;28;37472;-82
2021/06/16 02:54:38;;;;;;;6.95;4.15;;;;;;;;;;5056693;28;40245;-82
2021/06/16 02:57:05;;;;;;;10.10;4.38;;;;;;;;;;5058799;28;40867;-80
2021/06/16 02:59:32;;;;;;;6.60;3.83;;;;;;;;;;5053946;28;37698;-81
2021/06/16 03:01:58;;;;;;;10.15;4.40;;;;;;;;;;5065642;28;38148;-80
2021/06/16 03:04:26;;;;;;;8.98;4.43;;;;;;;;;;5052187;27;38435;-81
2021/06/16 03:06:53;;;;;;;7.45;3.95;;;;;;;;;;5057322;28;39522;-82
2021/06/16 03:09:20;;;;;;;7.07;3.90;;;;;;;;;;5061665;27;39207;-82
2021/06/16 03:11:47;;;;;;;9.80;4.70;;;;;;;;;;5060628;27;36970;-81
2021/06/16 03:14:14;;;;;;;8.90;4.05;;;;;;;;;;5052573;28;39931;-81
2021/06/16 03:16:41;;;;;;;7.38;4.13;;;;;;;;;;5054825;28;39316;-81
2021/06/16 03:19:08;;;;;;;9.35;5.22;;;;;;;;;;5063022;28;39181;-84
2021/06/16 03:21:35;;;;;;;9.52;4.30;;;;;;;;;;5053030;28;36693;-83
2021/06/16 03:24:01;;;;;;;8.75;4.20;;;;;;;;;;5052976;28;40149;-82
2021/06/16 03:26:28;;;;;;;12.35;4.00;;;;;;;;;;5052128;28;48458;-81
2021/06/16 03:28:55;;;;;;;9.25;5.10;;;;;;;;;;5063575;28;39604;-81
2021/06/16 03:31:22;;;;;;;10.80;4.65;;;;;;;;;;5071790;28;40890;-81
2021/06/16 03:33:49;;;;;;;10.90;4.80;;;;;;;;;;5081742;27;39795;-82
2021/06/16 03:36:17;;;;;;;10.40;4.95;;;;;;;;;;5052211;27;39622;-81
2021/06/16 03:38:44;;;;;;;8.57;4.88;;;;;;;;;;5054709;27;38806;-81
2021/06/16 03:41:14;;;;;;;9.18;4.60;;;;;;;;;;5054490;27;36899;-82
2021/06/16 03:43:42;;;;;;;9.75;5.13;;;;;;;;;;5070149;27;37485;-82
2021/06/16 03:46:09;;;;;;;7.70;4.22;;;;;;;;;;5077621;27;40647;-81
2021/06/16 03:48:35;;;;;;;10.40;4.63;;;;;;;;;;5053374;28;37449;-82
2021/06/16 03:51:03;;;;;;;10.95;4.75;;;;;;;;;;5051503;27;37606;-80
2021/06/16 03:53:29;;;;;;;10.73;4.88;;;;;;;;;;5048300;28;37775;-80
2021/06/16 03:55:57;;;;;;;8.98;4.45;;;;;;;;;;5054425;28;38585;-82
2021/06/16 03:58:23;;;;;;;8.13;4.05;;;;;;;;;;5049282;27;38863;-81
2021/06/16 04:00:50;;;;;;;9.35;4.65;;;;;;;;;;5057964;28;37729;-80
2021/06/16 04:03:16;;;;;;;7.13;4.10;;;;;;;;;;5057136;27;39328;-81
2021/06/16 04:05:43;;;;;;;8.82;4.57;;;;;;;;;;5048391;27;38723;-80
2021/06/16 04:08:11;;;;;;;10.75;4.43;;;;;;;;;;5045686;28;38750;-81
2021/06/16 04:10:38;;;;;;;12.18;4.75;;;;;;;;;;5052101;28;37607;-81
2021/06/16 04:13:06;;;;;;;13.95;5.28;;;;;;;;;;5052332;27;40090;-81
2021/06/16 04:15:32;;;;;;;10.38;4.50;;;;;;;;;;5054391;27;39070;-81
2021/06/16 04:17:59;;;;;;;13.32;4.72;;;;;;;;;;5045077;28;39310;-81
2021/06/16 04:20:26;;;;;;;8.63;4.18;;;;;;;;;;5052139;27;37317;-81
2021/06/16 04:22:52;;;;;;;9.90;4.35;;;;;;;;;;5052615;28;38750;-81
2021/06/16 04:25:19;;;;;;;13.07;4.38;;;;;;;;;;5045781;27;38897;-81
2021/06/16 04:27:45;;;;;;;15.68;4.25;;;;;;;;;;5050193;28;39382;-81
2021/06/16 04:30:13;;;;;;;9.65;4.03;;;;;;;;;;5058319;27;36895;-81
2021/06/16 04:32:40;;;;;;;9.38;5.03;;;;;;;;;;5049426;28;39384;-82
2021/06/16 04:35:07;;;;;;;11.68;4.47;;;;;;;;;;5038715;27;39551;-82
2021/06/16 04:37:33;;;;;;;8.70;4.03;;;;;;;;;;5033928;28;38492;-80
2021/06/16 04:40:00;;;;;;;8.10;4.47;;;;;;;;;;5031087;28;37027;-80
2021/06/16 04:42:26;;;;;;;7.80;3.88;;;;;;;;;;5051994;27;39277;-80
2021/06/16 04:44:53;;;;;;;10.57;4.60;;;;;;;;;;5030467;28;39247;-81
2021/06/16 04:47:19;;;;;;;11.98;4.03;;;;;;;;;;5054178;27;39897;-81
2021/06/16 04:49:45;;;;;;;8.70;4.35;;;;;;;;;;5059587;28;38961;-81
2021/06/16 04:52:12;;;;;;;10.57;4.40;;;;;;;;;;5032588;28;39059;-80
2021/06/16 04:54:39;;;;;;;9.07;4.10;;;;;;;;;;5063318;28;40154;-80
2021/06/16 04:57:05;;;;;;;8.63;4.20;;;;;;;;;;5023032;28;38218;-81
2021/06/16 04:59:32;;;;;;;9.07;3.83;;;;;;;;;;5033729;28;37972;-82
2021/06/16 05:01:59;;;;;;;10.52;3.83;;;;;;;;;;5032041;28;38723;-81
2021/06/16 05:04:27;;;;;;;13.38;4.10;;;;;;;;;;5067161;28;38926;-81
2021/06/16 05:06:53;;;;;;;10.20;3.63;;;;;;;;;;5035300;28;36825;-81
2021/06/16 05:09:20;;;;;;;8.30;3.53;;;;;;;;;;5058084;28;38349;-80
2021/06/16 05:11:46;;;;;;;6.57;3.33;;;;;;;;;;5061343;28;39250;-80
2021/06/16 05:14:12;;;;;;;7.75;3.90;;;;;;;;;;5050189;28;39521;-79
2021/06/16 05:16:39;;;;;;;8.65;3.90;;;;;;;;;;5061696;28;39650;-80
2021/06/16 05:19:11;;;;;;;9.60;4.25;;;;;;;;;;5056007;27;36932;-81
2021/06/16 05:21:38;;;;;;;8.95;3.47;;;;;;;;;;5059009;27;39379;-80
2021/06/16 05:24:04;;;;;;;10.75;4.40;;;;;;;;;;5059915;27;38889;-81
2021/06/16 05:26:31;;;;;;;11.00;4.85;;;;;;;;;;5062861;28;40316;-81
2021/06/16 05:28:57;;;;;;;7.03;3.47;;;;;;;;;;5056694;28;37076;-79
2021/06/16 05:31:24;;;;;;;10.70;4.20;;;;;;;;;;5051456;27;38679;-81
2021/06/16 05:33:50;;;;;;;10.57;4.40;;;;;;;;;;5053194;28;39981;-80
2021/06/16 05:36:16;;;;;;;10.50;3.70;;;;;;;;;;5057531;27;39445;-81
2021/06/16 05:38:43;;;;;;;8.45;3.72;;;;;;;;;;5089514;27;37752;-79
2021/06/16 05:41:09;;;;;;;8.23;3.40;;;;;;;;;;5065174;27;39973;-79
2021/06/16 05:43:36;;;;;;;10.38;3.90;;;;;;;;;;5055745;28;38997;-79
2021/06/16 05:46:02;;;;;;;8.70;4.00;;;;;;;;;;5058119;28;37381;-81
2021/06/16 05:48:29;;;;;;;8.45;3.38;;;;;;;;;;5058237;28;36112;-79
2021/06/16 05:50:55;;;;;;;14.93;3.53;;;;;;;;;;5060264;28;39296;-79
2021/06/16 05:53:22;;;;;;;10.70;3.60;;;;;;;;;;5061337;27;39363;-79
2021/06/16 05:55:48;;;;;;;10.48;3.72;;;;;;;;;;5056512;28;38499;-77
2021/06/16 05:58:15;;;;;;;8.10;3.42;;;;;;;;;;5057017;27;36602;-78
2021/06/16 06:00:41;;;;;;;10.35;3.25;;;;;;;;;;5051727;27;39153;-78
2021/06/16 06:03:07;;;;;;;9.77;3.45;;;;;;;;;;5058147;28;39759;-79
2021/06/16 06:05:34;;;;;;;15.52;4.57;;;;;;;;;;5045935;28;41055;-79
2021/06/16 06:08:00;;;;;;;6.90;3.13;;;;;;;;;;5052719;28;37716;-77
2021/06/16 06:10:27;;;;;;;14.13;3.30;;;;;;;;;;5050376;28;47195;-78
2021/06/16 06:12:54;;;;;;;12.40;3.20;;;;;;;;;;5062966;28;40101;-78
2021/06/16 06:15:21;;;;;;;9.07;3.05;;;;;;;;;;5063928;27;40137;-78
2021/06/16 06:17:47;;;;;;;5.72;2.72;;;;;;;;;;5063781;28;37908;-78
2021/06/16 06:20:14;;;;;;;12.23;3.58;;;;;;;;;;5038828;28;39057;-78
2021/06/16 06:22:40;;;;;;;8.93;2.60;;;;;;;;;;5065347;28;39352;-78
2021/06/16 06:25:07;;;;;;;8.95;2.72;;;;;;;;;;5036046;28;39235;-79
2021/06/16 06:27:33;;;;;;;9.23;2.95;;;;;;;;;;5039567;28;37476;-78
2021/06/16 06:30:00;;;;;;;8.07;2.80;;;;;;;;;;5040371;28;38847;-78
2021/06/16 06:32:26;;;;;;;8.60;2.33;;;;;;;;;;5035622;28;39597;-78
2021/06/16 06:34:52;;;;;;;7.60;2.67;;;;;;;;;;5035443;28;40358;-79
2021/06/16 06:37:22;;;;;;;7.82;2.72;;;;;;;;;;5036787;27;37267;-78
2021/06/16 06:39:49;;;;;;;9.63;2.67;;;;;;;;;;5067684;28;39797;-77
2021/06/16 06:42:16;;;;;;;11.68;3.35;;;;;;;;;;5037603;28;40521;-79
2021/06/16 06:44:43;;;;;;;6.07;2.42;;;;;;;;;;5064191;28;38893;-78
2021/06/16 06:47:10;;;;;;;7.85;2.50;;;;;;;;;;5034031;28;38195;-78
2021/06/16 06:49:36;;;;;;;11.38;2.92;;;;;;;;;;5039671;28;39087;-77
2021/06/16 06:52:03;;;;;;;11.85;2.53;;;;;;;;;;5034300;28;40044;-78
2021/06/16 06:54:29;;;;;;;6.22;2.70;;;;;;;;;;5072527;28;41565;-77
2021/06/16 06:56:56;;;;;;;6.43;2.22;;;;;;;;;;5037068;28;37394;-78
2021/06/16 06:59:22;;;;;;;6.53;2.13;;;;;;;;;;5034695;28;38667;-77
2021/06/16 07:01:48;;;;;;;6.65;2.30;;;;;;;;;;5038298;28;39847;-77
2021/06/16 07:04:15;;;;;;;7.60;2.33;;;;;;;;;;5037945;28;39320;-78
2021/06/16 07:06:41;;;;;;;11.13;3.15;;;;;;;;;;5041133;28;36995;-78
2021/06/16 07:09:08;;;;;;;7.32;2.25;;;;;;;;;;5034680;28;38681;-78
2021/06/16 07:11:34;;;;;;;7.10;2.33;;;;;;;;;;5041180;28;40679;-78
2021/06/16 07:14:01;;;;;;;7.57;2.40;;;;;;;;;;5065626;28;40700;-79
2021/06/16 07:16:27;;;;;;;6.95;2.58;;;;;;;;;;5038457;28;36880;-78
2021/06/16 07:18:53;;;;;;;5.55;2.00;;;;;;;;;;5063632;28;39471;-76
2021/06/16 07:21:20;;;;;;;6.50;2.33;;;;;;;;;;5035587;27;39926;-76
2021/06/16 07:23:46;;;;;;;5.90;1.83;;;;;;;;;;5065089;28;40004;-78
2021/06/16 07:26:13;;;;;;;8.63;2.67;;;;;;;;;;5034039;28;37692;-77
2021/06/16 07:28:39;;;;;;;6.60;2.55;;;;;;;;;;5041129;28;38450;-76
2021/06/16 07:31:05;;;;;;;8.27;2.67;;;;;;;;;;5067609;27;39346;-77
2021/06/16 07:33:32;;;;;;;7.40;2.15;;;;;;;;;;5043471;28;39632;-77
2021/06/16 07:35:58;;;;;;;9.10;2.20;;;;;;;;;;5054882;27;37924;-77
2021/06/16 07:38:25;;;;;;;5.53;2.40;;;;;;;;;;5055966;28;40571;-79
2021/06/16 07:40:51;;;;;;;6.45;1.98;;;;;;;;;;5034448;28;38960;-77
2021/06/16 07:43:17;;;;;;;6.70;2.00;;;;;;;;;;5072801;28;39314;-77
2021/06/16 07:45:44;;;;;;;4.93;2.28;;;;;;;;;;5040554;27;38054;-79
2021/06/16 07:48:10;;;;;;;6.28;2.17;;;;;;;;;;5037452;28;39058;-77
2021/06/16 07:50:38;;;;;;;5.70;1.65;;;;;;;;;;5040827;27;39230;-77
2021/06/16 07:53:07;;;;;;;6.57;2.25;;;;;;;;;;5037699;28;38493;-75
2021/06/16 07:55:34;;;;;;;4.85;2.08;;;;;;;;;;5072118;27;38332;-76
2021/06/16 07:58:02;;;;;;;7.55;2.08;;;;;;;;;;5042568;28;39345;-75
2021/06/16 08:00:31;;;;;;;7.60;2.20;;;;;;;;;;5041219;28;48928;-78
2021/06/16 08:02:57;;;;;;;5.78;1.90;;;;;;;;;;5044264;28;38443;-79
2021/06/16 08:05:24;;;;;;;6.05;2.22;;;;;;;;;;5071923;27;38271;-79
2021/06/16 08:07:52;;;;;;;5.88;1.80;;;;;;;;;;5062392;28;39207;-76
2021/06/16 08:10:19;;;;;;;3.33;1.80;;;;;;;;;;5043374;27;38915;-78
2021/06/16 08:12:45;;;;;;;6.65;2.33;;;;;;;;;;5063009;28;38618;-78
2021/06/16 08:15:12;;;;;;;7.13;1.90;;;;;;;;;;5040777;27;38674;-79
2021/06/16 08:17:39;;;;;;;7.00;2.05;;;;;;;;;;5066346;28;39710;-76
2021/06/16 08:20:06;;;;;;;5.07;2.20;;;;;;;;;;5041757;27;39724;-77
2021/06/16 08:22:34;;;;;;;8.32;2.10;;;;;;;;;;5042693;28;39617;-76
2021/06/16 08:25:01;;;;;;;6.32;2.25;;;;;;;;;;5039947;28;37607;-77
2021/06/16 08:27:28;;;;;;;4.85;2.33;;;;;;;;;;5044395;28;41873;-79
2021/06/16 08:29:54;;;;;;;5.93;2.15;;;;;;;;;;5042276;28;40284;-78
2021/06/16 08:32:20;;;;;;;5.53;2.45;;;;;;;;;;5038755;27;38698;-78
2021/06/16 08:34:47;;;;;;;5.50;2.40;;;;;;;;;;5036051;28;37933;-78
2021/06/16 08:37:13;;;;;;;5.28;2.00;;;;;;;;;;5064644;28;40476;-78
2021/06/16 08:39:40;;;;;;;7.65;2.35;;;;;;;;;;5063218;28;38148;-76
2021/06/16 08:42:07;;;;;;;5.43;2.22;;;;;;;;;;5032307;28;38734;-77
2021/06/16 08:44:33;;;;;;;6.97;2.67;;;;;;;;;;5043576;28;37943;-77
2021/06/16 08:47:00;;;;;;;6.75;2.30;;;;;;;;;;5040439;27;40013;-78
2021/06/16 08:49:26;;;;;;;7.40;2.78;;;;;;;;;;5032888;28;39637;-79
2021/06/16 08:51:53;;;;;;;4.90;2.55;;;;;;;;;;5060218;28;39402;-80
2021/06/16 08:54:19;;;;;;;5.55;2.30;;;;;;;;;;5034218;28;37388;-77
2021/06/16 08:56:46;;;;;;;8.32;2.90;;;;;;;;;;5061941;28;39792;-77
2021/06/16 08:59:12;;;;;;;7.22;2.53;;;;;;;;;;5039471;28;38858;-79
2021/06/16 09:01:38;;;;;;;4.30;2.63;;;;;;;;;;5036503;28;38807;-77
2021/06/16 09:04:05;;;;;;;5.65;2.25;;;;;;;;;;5041057;28;37523;-76
2021/06/16 09:06:34;;;;;;;7.53;3.28;;;;;;;;;;5033516;27;36285;-78
2021/06/16 09:09:01;;;;;;;5.63;2.50;;;;;;;;;;5033392;28;37052;-77
2021/06/16 09:11:46;;;;;;;6.95;2.67;;;;;;;;;;5060176;28;38934;-76
2021/06/16 09:14:18;;;;;;;6.72;2.63;;;;;;;;;;5039937;28;37456;-76
2021/06/16 09:16:44;;;;;;;4.13;2.60;;;;;;;;;;5039744;27;38341;-76
2021/06/16 09:19:22;;;;;;;5.50;2.72;;;;;;;;;;5038588;28;39076;-76
2021/06/16 09:21:49;;;;;;;11.05;2.72;;;;;;;;;;5042682;28;39107;-77
2021/06/16 09:24:17;;;;;;;4.13;2.35;;;;;;;;;;5031701;28;37486;-77
2021/06/16 09:26:44;;;;;;;7.75;2.72;;;;;;;;;;5035093;28;39678;-76
2021/06/16 09:29:11;;;;;;;10.00;2.50;;;;;;;;;;5031135;28;39949;-79
2021/06/16 09:31:40;;;;;;;4.50;2.53;;;;;;;;;;5036458;27;39658;-77
2021/06/16 09:34:11;;;;;;;5.38;2.70;;;;;;;;;;5028647;28;37028;-77
2021/06/16 09:36:54;;;;;;;7.50;2.65;;;;;;;;;;5032623;28;39803;-77
2021/06/16 09:39:21;;;;;;;5.13;2.22;;;;;;;;;;5031511;28;39903;-79
2021/06/16 09:41:55;;;;;;;4.97;2.20;;;;;;;;;;5035147;28;40394;-79
2021/06/16 09:44:41;;;;;;;7.10;3.65;;;;;;;;;;5041359;28;37803;-78
2021/06/16 09:47:11;;;;;;;6.38;3.08;;;;;;;;;;5034394;27;40049;-78
2021/06/16 09:49:48;;;;;;;6.78;3.22;;;;;;;;;;5074534;28;40710;-78
2021/06/16 09:52:33;;;;;;;8.85;2.70;;;;;;;;;;5035638;28;38806;-78
2021/06/16 09:55:00;;;;;;;5.57;2.47;;;;;;;;;;5042287;28;38859;-78
2021/06/16 09:57:27;;;;;;;5.70;2.90;;;;;;;;;;5040496;28;41026;-77
2021/06/16 09:59:58;;;;;;;4.65;2.30;;;;;;;;;;5037947;28;38926;-76
2021/06/16 10:02:28;;;;;;;6.38;2.67;;;;;;;;;;5044029;27;38815;-76
2021/06/16 10:05:03;;;;;;;4.22;2.80;;;;;;;;;;5040855;28;38002;-76
2021/06/16 10:07:34;;;;;;;6.28;2.15;;;;;;;;;;5061836;28;47566;-78
2021/06/16 10:10:02;;;;;;;11.57;3.20;;;;;;;;;;5062087;28;40420;-77
2021/06/16 10:12:30;;;;;;;5.63;2.72;;;;;;;;;;5059988;28;47110;-78
2021/06/16 10:14:57;;;;;;;2.30;1.80;;;;;;;;;;5062648;28;37619;-77
2021/06/16 10:17:24;;;;;;;5.47;2.13;;;;;;;;;;5062052;28;40441;-77
2021/06/16 10:19:50;;;;;;;3.63;2.05;;;;;;;;;;5063557;28;38795;-77
2021/06/16 10:22:17;;;;;;;7.00;2.50;;;;;;;;;;5063053;28;39200;-77
2021/06/16 10:24:44;;;;;;;3.85;2.05;;;;;;;;;;5067033;27;36505;-78
2021/06/16 10:27:14;;;;;;;4.55;2.35;;;;;;;;;;5059004;27;38812;-76
2021/06/16 10:29:43;;;;;;;5.60;2.30;;;;;;;;;;5066512;27;39442;-77
2021/06/16 10:32:11;;;;;;;4.38;2.85;;;;;;;;;;5074554;27;39595;-76
2021/06/16 10:34:52;;;;;;;6.78;1.92;;;;;;;;;;5055525;28;37931;-77
2021/06/16 10:37:31;;;;;;;4.68;2.00;;;;;;;;;;5059157;28;39520;-79
2021/06/16 10:40:16;;;;;;;4.95;1.83;;;;;;;;;;5065458;28;39735;-78
2021/06/16 10:43:03;;;;;;;5.93;2.50;;;;;;;;;;5049842;27;48951;-77
2021/06/16 10:45:30;;;;;;;4.60;2.33;;;;;;;;;;5051232;28;48998;-77
2021/06/16 10:48:01;;;;;;;4.10;1.83;;;;;;;;;;5060601;28;39237;-76
2021/06/16 10:50:46;;;;;;;8.45;2.00;;;;;;;;;;5061448;28;49124;-77
2021/06/16 10:53:30;;;;;;;8.35;2.28;;;;;;;;;;5062648;27;38403;-78
2021/06/16 10:55:57;;;;;;;5.22;1.95;;;;;;;;;;5053772;28;38283;-77
2021/06/16 10:58:25;;;;;;;4.50;3.00;;;;;;;;;;5064005;27;38972;-77
2021/06/16 11:01:07;;;;;;;3.60;2.08;;;;;;;;;;5057860;27;38951;-78
2021/06/16 11:03:33;;;;;;;;;;;;;;;;;;5056359;28;48468;-77
2021/06/16 11:05:59;;;;;;;3.03;1.85;;;;;;;;;;5052178;27;37206;-76
2021/06/16 11:08:46;;;;;;;5.55;2.75;;;;;;;;;;5063076;28;39868;-78
2021/06/16 11:11:12;;;;;;;6.50;2.65;;;;;;;;;;5062159;28;40885;-79
2021/06/16 11:13:40;;;;;;;8.88;3.28;;;;;;;;;;5061282;28;39137;-78
2021/06/16 11:16:25;;;;;;;4.72;3.20;;;;;;;;;;5060042;28;38937;-78
2021/06/16 11:19:11;;;;;;;6.38;3.45;;;;;;;;;;5061777;28;43269;-78
2021/06/16 11:21:38;;;;;;;6.68;3.50;;;;;;;;;;5089945;27;46983;-78
2021/06/16 11:24:04;;;;;;;8.85;4.30;;;;;;;;;;5049732;28;40429;-77
2021/06/16 11:26:44;;;;;;;7.88;4.07;;;;;;;;;;5058126;28;39287;-79
2021/06/16 11:29:10;;;;;;;3.72;3.30;;;;;;;;;;5062672;28;39895;-77
2021/06/16 11:31:55;;;;;;;5.63;3.60;;;;;;;;;;5053009;27;40290;-77
2021/06/16 11:34:40;;;;;;;4.20;3.03;;;;;;;;;;5030973;28;39085;-76
2021/06/16 11:37:06;;;;;;;9.68;3.47;;;;;;;;;;5044480;27;36583;-77
2021/06/16 11:39:32;;;;;;;7.20;3.88;;;;;;;;;;5037640;28;40806;-76
2021/06/16 11:41:59;;;;;;;5.55;3.13;;;;;;;;;;5060618;28;40163;-77
2021/06/16 11:44:25;;;;;;;8.65;3.95;;;;;;;;;;5037919;28;38798;-76
2021/06/16 11:46:58;;;;;;;6.68;3.95;;;;;;;;;;5063911;27;37250;-76
2021/06/16 11:49:25;;;;;;;5.47;3.30;;;;;;;;;;5065628;28;39505;-77
2021/06/16 11:51:51;;;;;;;8.13;4.53;;;;;;;;;;5030887;28;39332;-76
2021/06/16 11:54:27;;;;;;;7.25;4.15;;;;;;;;;;5043314;28;39014;-76
2021/06/16 11:57:04;;;;;;;9.80;5.03;;;;;;;;;;5038755;28;36930;-76
2021/06/16 11:59:34;;;;;;;8.60;4.10;;;;;;;;;;5039843;28;48774;-76
2021/06/16 12:02:19;;;;;;;6.38;3.67;;;;;;;;;;5028325;28;40037;-76
2021/06/16 12:04:50;;;;;;;7.00;3.80;;;;;;;;;;5036014;28;49898;-78
2021/06/16 12:07:24;;;;;;;4.90;3.50;;;;;;;;;;5041162;28;36607;-79
2021/06/16 12:09:51;;;;;;;7.25;3.22;;;;;;;;;;5045382;27;39657;-77
2021/06/16 12:12:18;;;;;;;6.75;4.00;;;;;;;;;;5047387;28;39659;-80
2021/06/16 12:14:47;;;;;;;8.10;3.55;;;;;;;;;;5034937;28;38809;-77
2021/06/16 12:17:14;;;;;;;8.60;4.07;;;;;;;;;;5033420;28;37436;-79
2021/06/16 12:19:40;;;;;;;7.50;4.25;;;;;;;;;;5042514;28;40577;-80
2021/06/16 12:22:10;;;;;;;6.85;3.58;;;;;;;;;;5032848;28;40059;-79
2021/06/16 12:24:40;;;;;;;9.15;4.53;;;;;;;;;;5040421;28;39028;-78
2021/06/16 12:27:07;;;;;;;5.97;4.85;;;;;;;;;;5039729;28;36553;-77
2021/06/16 12:29:35;;;;;;;6.95;4.30;;;;;;;;;;5063799;28;38792;-77
2021/06/16 12:32:04;;;;;;;4.95;3.50;;;;;;;;;;5035091;28;39321;-79
2021/06/16 12:34:42;;;;;;;8.38;3.17;;;;;;;;;;5037862;28;47506;-77
2021/06/16 12:37:13;;;;;;;5.90;3.75;;;;;;;;;;5048915;28;37783;-77
2021/06/16 12:39:40;;;;;;;;;;;;;;;;;;5056701;28;39037;-77
2021/06/16 12:42:07;;;;;;;7.28;4.22;;;;;;;;;;5041068;27;38262;-77
2021/06/16 12:44:41;;;;;;;7.35;4.57;;;;;;;;;;5039933;28;38077;-79
2021/06/16 12:47:10;;;;;;;5.30;3.95;;;;;;;;;;5042879;28;40897;-80
2021/06/16 12:49:39;;;;;;;5.63;4.63;;;;;;;;;;5065833;28;37944;-77
2021/06/16 12:52:06;;;;;;;9.15;4.00;;;;;;;;;;5038198;28;40122;-80
2021/06/16 12:54:35;;;;;;;8.65;4.80;;;;;;;;;;5038008;28;38810;-78
2021/06/16 12:57:05;;;;;;;8.30;4.88;;;;;;;;;;5035065;28;36680;-75
2021/06/16 12:59:33;;;;;;;8.52;5.30;;;;;;;;;;5043954;28;47420;-78
2021/06/16 13:01:59;;;;;;;7.32;5.43;;;;;;;;;;5065611;28;39411;-76
2021/06/16 13:04:42;;;;;;;5.57;3.95;;;;;;;;;;5034471;28;39576;-78
2021/06/16 13:07:08;;;;;;;7.22;4.43;;;;;;;;;;5035977;28;38944;-78
2021/06/16 13:09:34;;;;;;;6.07;4.15;;;;;;;;;;5069208;28;37888;-77
2021/06/16 13:12:05;;;;;;;7.65;4.43;;;;;;;;;;5061499;28;39131;-79
2021/06/16 13:14:35;;;;;;;5.88;4.28;;;;;;;;;;5037798;28;47983;-78
2021/06/16 13:17:03;;;;;;;8.48;4.55;;;;;;;;;;5033711;28;37516;-77
2021/06/16 13:19:29;;;;;;;6.78;3.85;;;;;;;;;;5034736;28;39730;-77
2021/06/16 13:21:57;;;;;;;9.68;4.65;;;;;;;;;;5036316;28;39101;-77
2021/06/16 13:24:23;;;;;;;7.07;4.22;;;;;;;;;;5045892;27;38271;-77
2021/06/16 13:26:58;;;;;;;7.00;4.30;;;;;;;;;;5044524;28;37762;-79
2021/06/16 13:29:28;;;;;;;6.88;4.40;;;;;;;;;;5035374;28;40072;-79
2021/06/16 13:31:55;;;;;;;8.60;4.50;;;;;;;;;;5026208;28;39904;-79
2021/06/16 13:34:21;;;;;;;7.25;4.78;;;;;;;;;;5062116;28;40749;-78
2021/06/16 13:36:48;;;;;;;7.40;4.32;;;;;;;;;;5041218;28;20045;-79
2021/06/16 13:39:14;;;;;;;6.47;3.72;;;;;;;;;;5034690;28;39332;-82
2021/06/16 13:41:51;;;;;;;5.57;4.00;;;;;;;;;;5052224;28;38973;-78
2021/06/16 13:44:21;;;;;;;6.55;4.15;;;;;;;;;;5039667;28;39452;-78
2021/06/16 13:46:50;;;;;;;10.82;5.13;;;;;;;;;;5030100;28;38893;-78
2021/06/16 13:49:17;;;;;;;7.63;3.83;;;;;;;;;;5060712;28;37795;-78
2021/06/16 13:51:43;;;;;;;5.45;4.35;;;;;;;;;;5064302;28;41286;-78
2021/06/16 13:54:12;;;;;;;12.00;5.20;;;;;;;;;;5043952;28;39598;-76
2021/06/16 13:56:39;;;;;;;10.23;4.97;;;;;;;;;;5065097;28;41030;-78
2021/06/16 13:59:05;;;;;;;7.85;5.40;;;;;;;;;;5059750;28;39742;-77
2021/06/16 14:01:33;;;;;;;10.93;4.78;;;;;;;;;;5033384;28;40244;-76
2021/06/16 14:03:59;;;;;;;5.65;4.32;;;;;;;;;;5041778;28;38937;-77
2021/06/16 14:06:28;;;;;;;5.97;3.97;;;;;;;;;;5039562;28;37977;-77
2021/06/16 14:08:56;;;;;;;9.80;4.70;;;;;;;;;;5044816;28;39554;-77
2021/06/16 14:11:22;;;;;;;5.43;3.72;;;;;;;;;;5039334;28;39191;-77
2021/06/16 14:13:49;;;;;;;4.88;3.80;;;;;;;;;;5061459;28;38330;-77
2021/06/16 14:16:15;;;;;;;9.68;4.90;;;;;;;;;;5043597;28;37251;-78
2021/06/16 14:18:43;;;;;;;8.07;5.20;;;;;;;;;;5041838;28;39718;-77
2021/06/16 14:21:10;;;;;;;9.15;5.03;;;;;;;;;;5036759;27;39479;-80
2021/06/16 14:23:36;;;;;;;9.15;5.60;;;;;;;;;;5051272;28;38347;-77
2021/06/16 14:26:05;;;;;;;7.07;4.53;;;;;;;;;;5039231;28;39917;-75
2021/06/16 14:28:31;;;;;;;9.25;4.80;;;;;;;;;;5049030;28;40773;-76
2021/06/16 14:30:58;;;;;;;7.00;4.57;;;;;;;;;;5066124;28;40679;-77
2021/06/16 14:33:24;;;;;;;6.88;4.40;;;;;;;;;;5067629;28;39191;-76
2021/06/16 14:35:50;;;;;;;9.05;4.88;;;;;;;;;;5040866;27;37997;-77
2021/06/16 14:38:17;;;;;;;5.68;4.18;;;;;;;;;;5041226;28;40128;-77
2021/06/16 14:40:43;;;;;;;5.35;4.10;;;;;;;;;;5033703;28;38916;-77
2021/06/16 14:43:10;;;;;;;9.57;4.55;;;;;;;;;;5063561;28;39805;-76
2021/06/16 14:45:36;;;;;;;4.38;3.83;;;;;;;;;;5062051;28;38614;-79
2021/06/16 14:48:03;;;;;;;11.32;4.40;;;;;;;;;;5062475;28;39824;-78